TimeCST,TemperatureF,Dew PointF,Humidity,Sea Level PressureIn,VisibilityMPH,Wind Direction,Wind SpeedMPH,Gust SpeedMPH,PrecipitationIn,Events,Conditions,WindDirDegrees,DateUTC
12:15 AM,35.2,28.8,77,30.06,10.0,NNW,5.8,-,N/A,,Clear,330,2014-01-15 06:15:00
12:35 AM,34.2,28.4,79,30.06,10.0,NNW,6.9,-,N/A,,Clear,340,2014-01-15 06:35:00
12:55 AM,33.6,28.2,81,30.06,10.0,NW,3.5,-,N/A,,Clear,320,2014-01-15 06:55:00
1:15 AM,32.9,27.5,81,30.07,10.0,NW,4.6,-,N/A,,Clear,320,2014-01-15 07:15:00
1:35 AM,32.4,27.1,81,30.08,10.0,NW,5.8,-,N/A,,Scattered Clouds,320,2014-01-15 07:35:00
1:55 AM,32.2,24.3,73,30.08,10.0,NNW,8.1,-,N/A,,Clear,340,2014-01-15 07:55:00
2:15 AM,31.6,22.3,68,30.08,10.0,North,8.1,-,N/A,,Scattered Clouds,350,2014-01-15 08:15:00
2:35 AM,31.1,21.6,68,30.09,10.0,NNW,6.9,-,N/A,,Clear,340,2014-01-15 08:35:00
2:55 AM,30.9,21.2,67,30.09,10.0,NNW,8.1,-,N/A,,Clear,340,2014-01-15 08:55:00
3:15 AM,30.9,21.0,67,30.09,10.0,NNW,6.9,-,N/A,,Clear,330,2014-01-15 09:15:00
3:35 AM,30.2,20.3,67,30.09,10.0,NNW,4.6,-,N/A,,Clear,330,2014-01-15 09:35:00
3:55 AM,29.8,20.3,68,30.09,10.0,NW,4.6,-,N/A,,Clear,320,2014-01-15 09:55:00
4:15 AM,29.7,19.6,66,30.09,10.0,NW,4.6,-,N/A,,Clear,320,2014-01-15 10:15:00
4:35 AM,29.5,19.8,67,30.09,10.0,WNW,8.1,-,N/A,,Clear,290,2014-01-15 10:35:00
4:55 AM,29.7,19.6,66,30.09,10.0,WNW,8.1,-,N/A,,Clear,290,2014-01-15 10:55:00
5:15 AM,29.3,19.2,66,30.10,10.0,WNW,6.9,-,N/A,,Clear,290,2014-01-15 11:15:00
5:35 AM,29.1,18.9,66,30.10,10.0,WNW,5.8,-,N/A,,Clear,290,2014-01-15 11:35:00
5:55 AM,28.6,19.2,68,30.10,10.0,West,4.6,-,N/A,,Clear,280,2014-01-15 11:55:00
6:15 AM,28.2,20.1,72,30.10,10.0,West,5.8,-,N/A,,Clear,270,2014-01-15 12:15:00
6:35 AM,27.9,20.1,73,30.10,10.0,WSW,4.6,-,N/A,,Clear,250,2014-01-15 12:35:00
6:55 AM,27.9,20.1,73,30.11,10.0,West,5.8,-,N/A,,Clear,270,2014-01-15 12:55:00
7:15 AM,28.4,20.5,72,30.11,10.0,West,5.8,-,N/A,,Mostly Cloudy,270,2014-01-15 13:15:00
7:35 AM,28.9,20.7,71,30.12,10.0,West,5.8,-,N/A,,Overcast,280,2014-01-15 13:35:00
7:55 AM,28.8,20.3,71,30.13,10.0,WNW,5.8,-,N/A,,Mostly Cloudy,290,2014-01-15 13:55:00
8:15 AM,28.9,20.1,70,30.14,10.0,NW,6.9,-,N/A,,Mostly Cloudy,310,2014-01-15 14:15:00
8:35 AM,30.2,19.8,65,30.14,10.0,NW,10.4,-,N/A,,Overcast,320,2014-01-15 14:35:00
8:55 AM,30.4,20.1,66,30.15,10.0,NNW,10.4,17.3,N/A,,Overcast,330,2014-01-15 14:55:00
9:15 AM,30.6,20.8,67,30.16,10.0,NW,8.1,17.3,N/A,,Overcast,320,2014-01-15 15:15:00
9:35 AM,30.7,20.3,65,30.17,10.0,NW,9.2,-,N/A,,Overcast,310,2014-01-15 15:35:00
9:55 AM,31.1,21.2,67,30.17,10.0,WNW,10.4,-,N/A,,Overcast,300,2014-01-15 15:55:00
10:15 AM,31.1,21.6,68,30.17,10.0,WNW,11.5,-,N/A,,Overcast,290,2014-01-15 16:15:00
10:35 AM,31.1,20.3,64,30.17,10.0,NW,11.5,17.3,N/A,,Overcast,320,2014-01-15 16:35:00
10:55 AM,30.9,20.1,64,30.17,10.0,NW,13.8,19.6,N/A,,Overcast,310,2014-01-15 16:55:00
11:15 AM,31.1,19.8,63,30.16,10.0,NW,11.5,-,N/A,,Overcast,310,2014-01-15 17:15:00
11:35 AM,32.5,21.2,63,30.15,10.0,WNW,10.4,-,N/A,,Overcast,290,2014-01-15 17:35:00
11:55 AM,31.1,20.1,64,30.14,10.0,NW,11.5,16.1,N/A,,Overcast,310,2014-01-15 17:55:00
12:15 PM,31.1,19.9,63,30.14,10.0,NW,8.1,16.1,N/A,,Overcast,320,2014-01-15 18:15:00
12:35 PM,30.9,19.6,63,30.13,10.0,NW,9.2,16.1,N/A,,Overcast,320,2014-01-15 18:35:00
12:55 PM,31.3,20.1,63,30.12,10.0,NW,9.2,-,N/A,,Overcast,320,2014-01-15 18:55:00
1:15 PM,30.9,19.4,62,30.13,10.0,NW,12.7,-,N/A,,Overcast,310,2014-01-15 19:15:00
1:35 PM,30.9,20.3,65,30.13,10.0,NW,10.4,19.6,N/A,,Overcast,320,2014-01-15 19:35:00
1:55 PM,30.9,19.6,63,30.14,10.0,WNW,10.4,-,N/A,,Overcast,290,2014-01-15 19:55:00
2:15 PM,30.6,19.6,64,30.14,10.0,NW,9.2,-,N/A,,Overcast,310,2014-01-15 20:15:00
2:35 PM,30.6,19.2,63,30.14,10.0,NNW,10.4,-,N/A,,Overcast,330,2014-01-15 20:35:00
2:55 PM,30.6,19.6,64,30.14,10.0,NNW,8.1,-,N/A,,Overcast,340,2014-01-15 20:55:00
3:15 PM,30.7,18.7,61,30.14,10.0,NNW,6.9,-,N/A,,Overcast,330,2014-01-15 21:15:00
3:35 PM,30.7,19.0,62,30.15,10.0,NNW,6.9,-,N/A,,Overcast,330,2014-01-15 21:35:00
3:55 PM,31.3,19.6,62,30.15,10.0,North,16.1,23.0,N/A,,Overcast,350,2014-01-15 21:55:00
4:15 PM,30.6,19.0,62,30.16,10.0,NNW,9.2,-,N/A,,Overcast,340,2014-01-15 22:15:00
4:35 PM,30.2,18.7,62,30.17,10.0,NNW,6.9,-,N/A,,Overcast,340,2014-01-15 22:35:00
4:55 PM,29.7,19.0,65,30.17,10.0,NW,6.9,-,N/A,,Overcast,320,2014-01-15 22:55:00
5:15 PM,28.9,18.3,65,30.17,10.0,NNW,6.9,-,N/A,,Scattered Clouds,330,2014-01-15 23:15:00
5:35 PM,28.2,18.5,67,30.16,10.0,NW,3.5,-,N/A,,Clear,320,2014-01-15 23:35:00
5:55 PM,27.5,18.3,68,30.16,10.0,Calm,Calm,-,N/A,,Clear,0,2014-01-15 23:55:00
6:15 PM,26.6,18.5,71,30.16,10.0,Calm,Calm,-,N/A,,Clear,0,2014-01-16 00:15:00
6:35 PM,26.4,19.8,76,30.16,10.0,Calm,Calm,-,N/A,,Clear,0,2014-01-16 00:35:00
6:55 PM,25.9,18.5,74,30.16,10.0,Calm,Calm,-,N/A,,Clear,0,2014-01-16 00:55:00
7:15 PM,25.3,19.6,79,30.16,10.0,Calm,Calm,-,N/A,,Clear,0,2014-01-16 01:15:00
7:35 PM,24.4,18.3,78,30.17,10.0,Calm,Calm,-,N/A,,Clear,0,2014-01-16 01:35:00
7:55 PM,23.7,18.5,80,30.16,10.0,Calm,Calm,-,N/A,,Clear,0,2014-01-16 01:55:00
8:15 PM,23.0,18.7,84,30.16,10.0,Calm,Calm,-,N/A,,Clear,0,2014-01-16 02:15:00
8:35 PM,23.7,18.3,80,30.15,10.0,Calm,Calm,-,N/A,,Clear,0,2014-01-16 02:35:00
8:55 PM,22.1,19.4,89,30.15,10.0,Calm,Calm,-,N/A,,Clear,0,2014-01-16 02:55:00
9:15 PM,21.7,19.4,91,30.14,10.0,Calm,Calm,-,N/A,,Clear,0,2014-01-16 03:15:00
9:35 PM,21.9,19.6,91,30.14,10.0,Calm,Calm,-,N/A,,Clear,0,2014-01-16 03:35:00
9:55 PM,21.6,19.2,91,30.13,10.0,Calm,Calm,-,N/A,,Clear,0,2014-01-16 03:55:00
10:15 PM,21.7,19.9,93,30.13,10.0,Calm,Calm,-,N/A,,Clear,0,2014-01-16 04:15:00
10:35 PM,21.6,19.9,93,30.13,10.0,Calm,Calm,-,N/A,,Clear,0,2014-01-16 04:35:00
10:55 PM,21.2,20.3,96,30.11,10.0,South,4.6,-,N/A,,Clear,170,2014-01-16 04:55:00
11:15 PM,22.3,21.6,97,30.11,10.0,South,4.6,-,N/A,,Clear,170,2014-01-16 05:15:00
11:35 PM,23.0,20.3,89,30.10,10.0,South,5.8,-,N/A,,Clear,170,2014-01-16 05:35:00
11:55 PM,23.4,19.8,86,30.09,10.0,SSW,4.6,-,N/A,,Clear,200,2014-01-16 05:55:00